Time;durP1;ratioP1;P1;durP2;ratioP2;P2;SDS_P1;SDS_P2;PMS_P1;PMS_P2;Temp;Humidity;BMP_temperature;BMP_pressure;BME280_temperature;BME280_humidity;BME280_pressure;Samples;Min_cycle;Max_cycle;Signal;HPM_P1;HPM_P2
2023/01/19 00:01:05;;;;;;;11.48;2.28;;;;;;;;;;4991494;28;20182;-65
2023/01/19 00:03:31;;;;;;;10.32;2.55;;;;;;;;;;4991898;28;20659;-65
2023/01/19 00:05:58;;;;;;;9.93;2.33;;;;;;;;;;5008759;28;20049;-65
2023/01/19 00:08:24;;;;;;;11.45;2.67;;;;;;;;;;5007421;28;20058;-65
2023/01/19 00:10:50;;;;;;;9.15;1.98;;;;;;;;;;5014952;28;20030;-65
2023/01/19 00:13:16;;;;;;;9.07;2.10;;;;;;;;;;5016655;28;20055;-65
2023/01/19 00:15:43;;;;;;;10.77;2.05;;;;;;;;;;4999957;28;20055;-66
2023/01/19 00:18:09;;;;;;;;;;;;;;;;;;5001121;28;20044;-66
2023/01/19 00:20:35;;;;;;;12.38;2.50;;;;;;;;;;5012463;28;20331;-66
2023/01/19 00:23:03;;;;;;;12.00;2.20;;;;;;;;;;5015792;28;20144;-65
2023/01/19 00:25:29;;;;;;;10.25;2.38;;;;;;;;;;5012188;28;20021;-65
2023/01/19 00:27:56;;;;;;;9.25;2.05;;;;;;;;;;5011621;28;20127;-65
2023/01/19 00:30:22;;;;;;;;;;;;;;;;;;5014675;28;20111;-66
2023/01/19 00:32:48;;;;;;;12.95;2.33;;;;;;;;;;5012477;28;19920;-65
2023/01/19 00:35:15;;;;;;;12.07;2.63;;;;;;;;;;5011310;28;20052;-65
2023/01/19 00:37:44;;;;;;;10.82;2.17;;;;;;;;;;4995963;28;20033;-65
2023/01/19 00:40:11;;;;;;;12.32;2.50;;;;;;;;;;5010409;28;20496;-65
2023/01/19 00:42:40;;;;;;;;;;;;;;;;;;5015712;28;20167;-65
2023/01/19 00:45:23;;;;;;;11.15;2.30;;;;;;;;;;5016672;28;19919;-67
2023/01/19 00:47:55;;;;;;;13.10;2.47;;;;;;;;;;5009970;28;20047;-66
2023/01/19 00:50:22;;;;;;;10.93;2.05;;;;;;;;;;5013067;28;20118;-67
2023/01/19 00:52:48;;;;;;;;;;;;;;;;;;5017806;28;20110;-67
2023/01/19 00:55:15;;;;;;;12.45;2.15;;;;;;;;;;5012451;28;20026;-67
2023/01/19 00:57:41;;;;;;;11.63;2.28;;;;;;;;;;5016344;28;20067;-67
2023/01/19 01:00:12;;;;;;;10.38;2.05;;;;;;;;;;5016060;28;20071;-66
2023/01/19 01:02:39;;;;;;;13.45;2.50;;;;;;;;;;5011802;28;20673;-67
2023/01/19 01:05:06;;;;;;;11.35;2.35;;;;;;;;;;5010157;28;20534;-67
2023/01/19 01:07:43;;;;;;;12.27;2.22;;;;;;;;;;5008870;28;20606;-67
2023/01/19 01:10:11;;;;;;;14.00;2.47;;;;;;;;;;5015520;28;20036;-65
2023/01/19 01:12:37;;;;;;;11.95;2.45;;;;;;;;;;5014952;28;20082;-67
2023/01/19 01:15:04;;;;;;;15.65;3.20;;;;;;;;;;5016965;28;20026;-65
2023/01/19 01:17:30;;;;;;;14.30;2.72;;;;;;;;;;5014337;28;20769;-65
2023/01/19 01:19:56;;;;;;;15.48;2.80;;;;;;;;;;5013275;28;20490;-65
2023/01/19 01:22:22;;;;;;;17.40;2.97;;;;;;;;;;5014639;28;20025;-65
2023/01/19 01:24:48;;;;;;;16.20;2.95;;;;;;;;;;4997627;28;20028;-65
2023/01/19 01:27:15;;;;;;;13.68;2.80;;;;;;;;;;4998745;28;20113;-65
2023/01/19 01:29:47;;;;;;;11.10;2.90;;;;;;;;;;5017700;28;20442;-65
2023/01/19 01:32:13;;;;;;;17.55;2.85;;;;;;;;;;5012902;28;20458;-65
2023/01/19 01:34:39;;;;;;;;;;;;;;;;;;4997426;28;20095;-65
2023/01/19 01:37:07;;;;;;;15.75;3.03;;;;;;;;;;5015660;28;20317;-65
2023/01/19 01:39:36;;;;;;;15.65;2.78;;;;;;;;;;5014153;28;20344;-65
2023/01/19 01:42:02;;;;;;;13.88;2.42;;;;;;;;;;5018164;28;20102;-65
2023/01/19 01:44:28;;;;;;;;;;;;;;;;;;4994162;28;20139;-65
2023/01/19 01:46:54;;;;;;;12.75;2.60;;;;;;;;;;5016595;28;19912;-65
2023/01/19 01:49:21;;;;;;;16.58;2.70;;;;;;;;;;5008610;28;20032;-65
2023/01/19 01:51:47;;;;;;;;;;;;;;;;;;5015702;28;20056;-65
2023/01/19 01:54:13;;;;;;;10.77;2.70;;;;;;;;;;5015625;28;20631;-65
2023/01/19 01:56:44;;;;;;;13.90;2.60;;;;;;;;;;5016448;28;20037;-64
2023/01/19 01:59:16;;;;;;;16.08;3.13;;;;;;;;;;5012988;28;20471;-65
2023/01/19 02:04:29;;;;;;;12.55;2.72;;;;;;;;;;5012982;28;20048;-65
2023/01/19 02:15:14;;;;;;;16.50;2.58;;;;;;;;;;5013911;28;20162;-66
2023/01/19 02:17:41;;;;;;;12.00;2.25;;;;;;;;;;5000867;28;20029;-66
2023/01/19 02:20:09;;;;;;;16.48;2.90;;;;;;;;;;5012680;28;20033;-66
2023/01/19 02:22:40;;;;;;;10.93;2.42;;;;;;;;;;4997565;28;20498;-65
2023/01/19 02:25:07;;;;;;;13.57;2.53;;;;;;;;;;4997230;28;20383;-66
2023/01/19 02:27:33;;;;;;;12.23;2.08;;;;;;;;;;5013057;28;20091;-65
2023/01/19 02:30:02;;;;;;;;;;;;;;;;;;5015575;28;20068;-65
2023/01/19 02:32:28;;;;;;;13.10;2.33;;;;;;;;;;5012401;28;20298;-66
2023/01/19 02:34:54;;;;;;;13.05;2.42;;;;;;;;;;5016053;28;20064;-65
2023/01/19 02:37:21;;;;;;;15.13;2.53;;;;;;;;;;5012887;28;20036;-66
2023/01/19 02:39:58;;;;;;;12.20;2.30;;;;;;;;;;4997364;28;20052;-66
2023/01/19 02:42:26;;;;;;;10.20;2.15;;;;;;;;;;4996200;28;20040;-66
2023/01/19 02:44:54;;;;;;;12.27;2.47;;;;;;;;;;5018144;28;20644;-66
2023/01/19 02:47:20;;;;;;;14.95;2.80;;;;;;;;;;5011399;28;20033;-65
2023/01/19 02:49:56;;;;;;;13.70;2.50;;;;;;;;;;5016469;28;20322;-65
2023/01/19 02:52:22;;;;;;;13.55;2.60;;;;;;;;;;5009910;28;20052;-66
2023/01/19 02:54:48;;;;;;;16.73;2.80;;;;;;;;;;5016181;28;20112;-66
2023/01/19 02:57:17;;;;;;;12.23;2.58;;;;;;;;;;5011744;28;20025;-66
2023/01/19 03:00:02;;;;;;;12.27;2.25;;;;;;;;;;5013561;28;20036;-65
2023/01/19 03:02:28;;;;;;;11.23;2.17;;;;;;;;;;5011103;28;20037;-66
2023/01/19 03:05:07;;;;;;;11.40;2.17;;;;;;;;;;5011931;28;20649;-65
2023/01/19 03:07:36;;;;;;;14.52;2.22;;;;;;;;;;5009759;28;20475;-67
2023/01/19 03:10:06;;;;;;;12.93;2.22;;;;;;;;;;5014463;28;20021;-66
2023/01/19 03:12:35;;;;;;;10.40;1.90;;;;;;;;;;5007987;28;20064;-66
2023/01/19 03:15:07;;;;;;;11.40;2.20;;;;;;;;;;5013099;28;20313;-66
2023/01/19 03:17:34;;;;;;;8.57;1.67;;;;;;;;;;5011267;28;20087;-66
2023/01/19 03:20:03;;;;;;;9.75;1.95;;;;;;;;;;4998209;28;20444;-65
2023/01/19 03:22:29;;;;;;;18.60;2.10;;;;;;;;;;5010603;28;20059;-65
2023/01/19 03:24:58;;;;;;;10.55;1.92;;;;;;;;;;5014012;28;20581;-65
2023/01/19 03:27:25;;;;;;;10.02;1.88;;;;;;;;;;5007643;28;20494;-65
2023/01/19 03:30:00;;;;;;;8.48;1.83;;;;;;;;;;5012341;28;20021;-66
2023/01/19 03:32:29;;;;;;;10.30;1.98;;;;;;;;;;5014871;28;20028;-66
2023/01/19 03:34:56;;;;;;;7.20;1.55;;;;;;;;;;5017442;28;20033;-65
2023/01/19 03:37:23;;;;;;;11.73;1.90;;;;;;;;;;5000106;28;20040;-65
2023/01/19 03:39:50;;;;;;;11.63;2.30;;;;;;;;;;5001763;28;20071;-65
2023/01/19 03:42:17;;;;;;;8.32;1.70;;;;;;;;;;5014125;28;20259;-65
2023/01/19 03:44:44;;;;;;;10.02;1.83;;;;;;;;;;5019751;28;20827;-66
2023/01/19 03:47:11;;;;;;;9.45;1.55;;;;;;;;;;5019796;28;20017;-65
2023/01/19 03:49:39;;;;;;;7.47;1.70;;;;;;;;;;5013006;28;20445;-65
2023/01/19 03:52:05;;;;;;;9.02;1.98;;;;;;;;;;5019307;28;20475;-65
2023/01/19 03:54:31;;;;;;;14.63;2.05;;;;;;;;;;5016083;28;20739;-65
2023/01/19 03:56:57;;;;;;;8.93;1.75;;;;;;;;;;5016876;28;20056;-66
2023/01/19 03:59:24;;;;;;;10.93;2.08;;;;;;;;;;5012077;28;20451;-65
2023/01/19 04:01:50;;;;;;;7.30;1.50;;;;;;;;;;5018852;28;20121;-65
2023/01/19 04:04:16;;;;;;;9.50;1.90;;;;;;;;;;5016801;28;20337;-65
2023/01/19 04:06:43;;;;;;;7.97;1.65;;;;;;;;;;4999670;28;20813;-65
2023/01/19 04:09:09;;;;;;;12.45;2.28;;;;;;;;;;5021056;28;20095;-65
2023/01/19 04:11:35;;;;;;;9.90;1.90;;;;;;;;;;5014749;28;20025;-65
2023/01/19 04:14:01;;;;;;;10.95;1.85;;;;;;;;;;5019191;28;20214;-65
2023/01/19 04:16:27;;;;;;;9.88;1.90;;;;;;;;;;5003186;28;20849;-65
2023/01/19 04:18:54;;;;;;;11.30;1.88;;;;;;;;;;5001814;28;20025;-65
2023/01/19 04:21:20;;;;;;;;;;;;;;;;;;5016597;28;20351;-65
2023/01/19 04:23:48;;;;;;;10.63;2.20;;;;;;;;;;5017883;28;19916;-65
2023/01/19 04:26:14;;;;;;;8.77;1.70;;;;;;;;;;5011094;28;20106;-65
2023/01/19 04:28:40;;;;;;;11.50;1.90;;;;;;;;;;5015980;28;20040;-65
2023/01/19 04:31:07;;;;;;;9.95;1.85;;;;;;;;;;5015609;28;20037;-65
2023/01/19 04:33:33;;;;;;;7.85;1.30;;;;;;;;;;4997739;28;20344;-65
2023/01/19 04:35:59;;;;;;;;;;;;;;;;;;4997066;28;20124;-65
2023/01/19 04:38:26;;;;;;;8.18;1.60;;;;;;;;;;5009843;28;19919;-65
2023/01/19 04:40:53;;;;;;;9.90;1.70;;;;;;;;;;5018218;28;20028;-66
2023/01/19 04:43:22;;;;;;;9.18;1.70;;;;;;;;;;4998058;28;20056;-65
2023/01/19 04:45:49;;;;;;;10.50;1.75;;;;;;;;;;5016341;28;20032;-65
2023/01/19 04:48:15;;;;;;;;;;;;;;;;;;5014065;28;20025;-65
2023/01/19 04:50:41;;;;;;;9.48;1.80;;;;;;;;;;5018229;28;19966;-67
2023/01/19 04:53:08;;;;;;;8.13;1.55;;;;;;;;;;5017025;28;20417;-66
2023/01/19 04:55:34;;;;;;;9.98;2.00;;;;;;;;;;5013831;28;20534;-65
2023/01/19 04:58:00;;;;;;;8.80;1.88;;;;;;;;;;5018414;28;20029;-65
2023/01/19 05:00:26;;;;;;;9.38;1.73;;;;;;;;;;5012471;28;20130;-65
2023/01/19 05:02:53;;;;;;;12.63;1.88;;;;;;;;;;5016258;28;20287;-65
2023/01/19 05:05:19;;;;;;;9.13;1.75;;;;;;;;;;5011261;28;20594;-65
2023/01/19 05:07:45;;;;;;;10.90;1.90;;;;;;;;;;5017264;28;20033;-65
2023/01/19 05:10:11;;;;;;;;;;;;;;;;;;4998203;28;20034;-65
2023/01/19 05:12:37;;;;;;;8.57;1.75;;;;;;;;;;5016144;28;19913;-66
2023/01/19 05:15:06;;;;;;;9.32;1.77;;;;;;;;;;5000882;28;20462;-64
2023/01/19 05:17:33;;;;;;;9.48;1.60;;;;;;;;;;5012203;28;20618;-65
2023/01/19 05:19:59;;;;;;;11.10;1.85;;;;;;;;;;4995720;28;20032;-65
2023/01/19 05:22:25;;;;;;;9.80;1.83;;;;;;;;;;5014879;28;20143;-65
2023/01/19 05:24:51;;;;;;;8.18;1.88;;;;;;;;;;5016914;28;20341;-65
2023/01/19 05:27:17;;;;;;;10.57;2.20;;;;;;;;;;4990877;28;20052;-65
2023/01/19 05:29:43;;;;;;;7.65;1.65;;;;;;;;;;5016807;28;20311;-64
2023/01/19 05:32:10;;;;;;;10.88;2.00;;;;;;;;;;5017006;28;20823;-65
2023/01/19 05:34:36;;;;;;;9.75;1.92;;;;;;;;;;5014931;28;20033;-65
2023/01/19 05:37:03;;;;;;;11.63;1.92;;;;;;;;;;5015334;28;20044;-65
2023/01/19 05:39:29;;;;;;;14.38;2.20;;;;;;;;;;5009745;28;20249;-64
2023/01/19 05:41:55;;;;;;;11.40;2.28;;;;;;;;;;5015550;28;20182;-65
2023/01/19 05:44:21;;;;;;;10.80;2.22;;;;;;;;;;5014079;28;20274;-65
2023/01/19 05:46:47;;;;;;;13.73;2.40;;;;;;;;;;5013317;28;20025;-65
2023/01/19 05:49:14;;;;;;;9.85;2.28;;;;;;;;;;5009510;28;20653;-65
2023/01/19 05:51:44;;;;;;;13.40;2.60;;;;;;;;;;5013090;28;20039;-65
2023/01/19 05:54:11;;;;;;;13.93;2.55;;;;;;;;;;4998517;28;20033;-65
2023/01/19 05:56:38;;;;;;;14.65;2.20;;;;;;;;;;5013247;28;20044;-65
2023/01/19 05:59:04;;;;;;;10.35;2.03;;;;;;;;;;5011454;28;20175;-65
2023/01/19 06:01:32;;;;;;;;;;;;;;;;;;5010700;28;20268;-65
2023/01/19 06:03:58;;;;;;;11.77;2.38;;;;;;;;;;5016567;28;19997;-65
2023/01/19 06:06:24;;;;;;;10.73;2.17;;;;;;;;;;5011932;28;20048;-65
2023/01/19 06:08:50;;;;;;;11.40;2.20;;;;;;;;;;5017968;28;20661;-66
2023/01/19 06:11:16;;;;;;;10.25;2.17;;;;;;;;;;5010971;28;20041;-65
2023/01/19 06:13:42;;;;;;;11.57;2.13;;;;;;;;;;5013513;28;20041;-65
2023/01/19 06:16:09;;;;;;;11.75;2.15;;;;;;;;;;5014431;28;20155;-65
2023/01/19 06:18:35;;;;;;;;;;;;;;;;;;5009774;28;20496;-66
2023/01/19 06:21:05;;;;;;;12.38;2.10;;;;;;;;;;5016575;28;20127;-66
2023/01/19 06:23:32;;;;;;;11.30;2.20;;;;;;;;;;5012216;28;20072;-65
2023/01/19 06:25:58;;;;;;;;;;;;;;;;;;5016879;28;20021;-65
2023/01/19 06:28:24;;;;;;;10.15;1.98;;;;;;;;;;4991246;28;19919;-65
2023/01/19 06:30:50;;;;;;;13.32;2.70;;;;;;;;;;4998362;28;20030;-65
2023/01/19 06:33:17;;;;;;;15.00;2.28;;;;;;;;;;4994008;28;20037;-65
2023/01/19 06:35:43;;;;;;;;;;;;;;;;;;5017052;28;20044;-65
2023/01/19 06:38:09;;;;;;;13.98;2.83;;;;;;;;;;5016634;28;20374;-67
2023/01/19 06:40:35;;;;;;;13.73;2.42;;;;;;;;;;5012415;28;20029;-65
2023/01/19 06:43:01;;;;;;;14.57;2.80;;;;;;;;;;5016731;28;20029;-65
2023/01/19 06:45:28;;;;;;;11.93;2.47;;;;;;;;;;5008725;28;20029;-65
2023/01/19 06:47:54;;;;;;;12.45;2.38;;;;;;;;;;5015371;28;20090;-67
2023/01/19 06:50:20;;;;;;;15.23;2.58;;;;;;;;;;5013141;28;20040;-67
2023/01/19 06:52:49;;;;;;;12.80;2.45;;;;;;;;;;5013432;28;20033;-66
2023/01/19 06:55:15;;;;;;;12.40;2.53;;;;;;;;;;5010212;28;20055;-66
2023/01/19 06:57:43;;;;;;;14.15;2.40;;;;;;;;;;5014263;28;20025;-66
2023/01/19 07:00:10;;;;;;;13.23;2.47;;;;;;;;;;5008313;28;20037;-66
2023/01/19 07:02:37;;;;;;;16.35;2.80;;;;;;;;;;5013934;28;20371;-66
2023/01/19 07:05:05;;;;;;;13.30;2.92;;;;;;;;;;4995882;28;21043;-66
2023/01/19 07:07:32;;;;;;;13.95;3.10;;;;;;;;;;5010261;28;20183;-66
2023/01/19 07:09:58;;;;;;;12.82;2.97;;;;;;;;;;5015275;28;20387;-66
2023/01/19 07:12:24;;;;;;;14.48;3.20;;;;;;;;;;5011153;28;20540;-66
2023/01/19 07:14:51;;;;;;;14.48;3.33;;;;;;;;;;5012653;28;20549;-67
2023/01/19 07:17:17;;;;;;;11.85;3.15;;;;;;;;;;5012592;28;20037;-67
2023/01/19 07:19:44;;;;;;;10.88;3.42;;;;;;;;;;5012801;28;20021;-66
2023/01/19 07:22:10;;;;;;;16.42;3.60;;;;;;;;;;5013606;28;20037;-66
2023/01/19 07:24:36;;;;;;;15.18;4.00;;;;;;;;;;5009576;28;20017;-67
2023/01/19 07:27:04;;;;;;;15.10;3.60;;;;;;;;;;5013148;28;20029;-66
2023/01/19 07:29:30;;;;;;;10.77;2.40;;;;;;;;;;4997238;28;20044;-66
2023/01/19 07:31:56;;;;;;;11.85;2.72;;;;;;;;;;5014141;28;20056;-66
2023/01/19 07:34:22;;;;;;;12.32;2.63;;;;;;;;;;5011051;28;20498;-65
2023/01/19 07:36:49;;;;;;;13.40;2.50;;;;;;;;;;5011787;28;20036;-64
2023/01/19 07:39:15;;;;;;;12.40;2.92;;;;;;;;;;5007828;28;20028;-65
2023/01/19 07:41:41;;;;;;;11.23;2.38;;;;;;;;;;5011351;28;20037;-65
2023/01/19 07:44:07;;;;;;;12.30;2.63;;;;;;;;;;4998383;28;20478;-65
2023/01/19 07:46:33;;;;;;;10.30;2.92;;;;;;;;;;5011870;28;20699;-66
2023/01/19 07:49:00;;;;;;;15.25;2.67;;;;;;;;;;5012579;28;20021;-67
2023/01/19 07:51:26;;;;;;;15.60;3.30;;;;;;;;;;5010699;28;20766;-67
2023/01/19 07:53:52;;;;;;;;;;;;;;;;;;5012951;28;20051;-65
2023/01/19 07:56:19;;;;;;;13.30;3.15;;;;;;;;;;4990341;28;19943;-65
2023/01/19 07:58:45;;;;;;;13.02;2.85;;;;;;;;;;4987305;28;20041;-65
2023/01/19 08:01:13;;;;;;;14.85;3.00;;;;;;;;;;5011411;28;20024;-65
2023/01/19 08:03:39;;;;;;;11.05;2.35;;;;;;;;;;5011801;28;20055;-65
2023/01/19 08:06:06;;;;;;;13.02;3.03;;;;;;;;;;5013907;28;20099;-65
2023/01/19 08:08:33;;;;;;;24.10;6.85;;;;;;;;;;5004694;28;21275;-66
2023/01/19 08:10:59;;;;;;;20.88;7.28;;;;;;;;;;5009935;28;20017;-65
2023/01/19 08:13:25;;;;;;;17.50;5.13;;;;;;;;;;5013585;28;20037;-65
2023/01/19 08:15:53;;;;;;;20.63;8.27;;;;;;;;;;5012671;28;20027;-65
2023/01/19 08:18:19;;;;;;;19.25;7.22;;;;;;;;;;5018004;28;20590;-65
2023/01/19 08:20:46;;;;;;;16.98;6.28;;;;;;;;;;5019510;28;20418;-65
2023/01/19 08:23:12;;;;;;;18.95;8.00;;;;;;;;;;5014475;28;20033;-65
2023/01/19 08:25:39;;;;;;;;;;;;;;;;;;5020412;28;20029;-65
2023/01/19 08:28:06;;;;;;;17.07;6.43;;;;;;;;;;5017894;28;19959;-65
2023/01/19 08:30:33;;;;;;;13.85;4.03;;;;;;;;;;5017182;28;20265;-65
2023/01/19 08:33:08;;;;;;;12.35;3.28;;;;;;;;;;5016987;28;20037;-66
2023/01/19 08:35:39;;;;;;;18.77;3.95;;;;;;;;;;5010998;28;20037;-65
2023/01/19 08:38:05;;;;;;;13.50;2.63;;;;;;;;;;4999031;28;20037;-66
2023/01/19 08:40:33;;;;;;;;;;;;;;;;;;5014389;28;22166;-65
2023/01/19 08:43:06;;;;;;;12.93;3.88;;;;;;;;;;4996442;28;19932;-66
2023/01/19 08:45:46;;;;;;;13.90;4.00;;;;;;;;;;5015335;28;20032;-66
2023/01/19 08:48:13;;;;;;;13.13;3.45;;;;;;;;;;5008435;28;20068;-66
2023/01/19 08:50:39;;;;;;;13.45;3.33;;;;;;;;;;5018667;28;20033;-66
2023/01/19 08:53:06;;;;;;;14.45;3.45;;;;;;;;;;5019011;28;20025;-66
2023/01/19 08:55:33;;;;;;;13.35;3.00;;;;;;;;;;5013633;28;20036;-66
2023/01/19 08:58:02;;;;;;;11.85;2.65;;;;;;;;;;5017280;28;20025;-66
2023/01/19 09:00:30;;;;;;;9.85;2.45;;;;;;;;;;4997687;28;20535;-66
2023/01/19 09:02:56;;;;;;;10.30;2.45;;;;;;;;;;5019890;28;20029;-66
2023/01/19 09:05:23;;;;;;;12.65;2.70;;;;;;;;;;5010357;28;20147;-66
2023/01/19 09:07:50;;;;;;;;;;;;;;;;;;5017034;28;20267;-66
2023/01/19 09:10:17;;;;;;;15.13;2.95;;;;;;;;;;5012250;28;20760;-66
2023/01/19 09:12:43;;;;;;;12.40;2.50;;;;;;;;;;5013547;28;20539;-66
2023/01/19 09:15:11;;;;;;;14.98;2.72;;;;;;;;;;4997315;28;20167;-66
2023/01/19 09:17:37;;;;;;;13.93;3.20;;;;;;;;;;5017514;28;20120;-66
2023/01/19 09:20:04;;;;;;;10.93;2.60;;;;;;;;;;5010711;28;20025;-66
2023/01/19 09:22:32;;;;;;;10.60;2.65;;;;;;;;;;5008073;28;20186;-66
2023/01/19 09:24:58;;;;;;;9.82;2.15;;;;;;;;;;4995082;28;20211;-66
2023/01/19 09:27:24;;;;;;;;;;;;;;;;;;5011621;28;20558;-66
2023/01/19 09:29:53;;;;;;;11.43;2.80;;;;;;;;;;5009114;28;19909;-66
2023/01/19 09:32:20;;;;;;;11.05;2.42;;;;;;;;;;5009130;28;20129;-65
2023/01/19 09:34:46;;;;;;;10.35;2.25;;;;;;;;;;5013832;28;20028;-65
2023/01/19 09:37:14;;;;;;;10.60;2.05;;;;;;;;;;5009587;28;20273;-65
2023/01/19 09:39:40;;;;;;;11.05;2.10;;;;;;;;;;5015743;28;20059;-65
2023/01/19 09:42:26;;;;;;;12.55;2.45;;;;;;;;;;5012122;28;20067;-66
2023/01/19 09:44:53;;;;;;;12.52;2.28;;;;;;;;;;5012945;28;20025;-66
2023/01/19 09:47:22;;;;;;;11.38;2.30;;;;;;;;;;5012950;28;20711;-66
2023/01/19 09:49:57;;;;;;;11.15;2.20;;;;;;;;;;4999524;28;20031;-66
2023/01/19 09:52:32;;;;;;;12.00;2.10;;;;;;;;;;5013755;28;20065;-65
2023/01/19 09:54:58;;;;;;;10.73;1.92;;;;;;;;;;4998139;28;20541;-65
2023/01/19 09:57:26;;;;;;;13.98;1.90;;;;;;;;;;5015255;28;20379;-66
2023/01/19 09:59:56;;;;;;;13.02;2.05;;;;;;;;;;5012161;28;20029;-65
2023/01/19 10:02:29;;;;;;;11.52;2.08;;;;;;;;;;5014879;28;20039;-66
2023/01/19 10:05:02;;;;;;;11.82;2.38;;;;;;;;;;5016494;28;20360;-66
2023/01/19 10:07:34;;;;;;;13.63;2.53;;;;;;;;;;4997221;28;20111;-66
2023/01/19 10:10:00;;;;;;;10.32;1.90;;;;;;;;;;5011134;28;20030;-66
2023/01/19 10:12:45;;;;;;;12.32;2.20;;;;;;;;;;5008828;28;20083;-67
2023/01/19 10:15:30;;;;;;;10.95;2.00;;;;;;;;;;5011863;28;20375;-67
2023/01/19 10:18:03;;;;;;;11.77;2.72;;;;;;;;;;5014138;28;20366;-66
2023/01/19 10:20:32;;;;;;;10.32;2.05;;;;;;;;;;5002758;28;20036;-66
2023/01/19 10:22:59;;;;;;;9.93;1.80;;;;;;;;;;5014653;28;20478;-67
2023/01/19 10:25:25;;;;;;;11.05;2.20;;;;;;;;;;5011100;28;20061;-66
2023/01/19 10:27:51;;;;;;;8.65;1.85;;;;;;;;;;4998810;28;20512;-67
2023/01/19 10:30:25;;;;;;;12.20;2.47;;;;;;;;;;5010509;28;20036;-67
2023/01/19 10:32:51;;;;;;;9.05;1.80;;;;;;;;;;5014524;28;20564;-67
2023/01/19 10:35:22;;;;;;;;;;;;;;;;;;5013901;28;20045;-66
2023/01/19 10:37:48;;;;;;;12.02;2.10;;;;;;;;;;5015481;28;20001;-66
2023/01/19 10:40:35;;;;;;;10.90;2.05;;;;;;;;;;5012538;28;20087;-66
2023/01/19 10:43:01;;;;;;;11.65;2.40;;;;;;;;;;5013281;28;20140;-66
2023/01/19 10:45:29;;;;;;;13.20;2.38;;;;;;;;;;5010596;28;20031;-66
2023/01/19 10:47:58;;;;;;;9.05;1.67;;;;;;;;;;5012827;28;20025;-66
2023/01/19 10:50:31;;;;;;;9.55;1.90;;;;;;;;;;5018742;28;20036;-66
2023/01/19 10:53:00;;;;;;;10.20;1.70;;;;;;;;;;5015523;28;20029;-65
2023/01/19 10:55:30;;;;;;;10.23;1.88;;;;;;;;;;5008928;28;20543;-66
2023/01/19 10:57:57;;;;;;;9.32;2.53;;;;;;;;;;4994072;28;20078;-66
2023/01/19 11:00:29;;;;;;;10.00;2.92;;;;;;;;;;5009545;28;20412;-65
2023/01/19 11:02:55;;;;;;;10.82;2.55;;;;;;;;;;5013523;28;20068;-65
2023/01/19 11:05:24;;;;;;;8.88;2.17;;;;;;;;;;5008272;28;20744;-66
2023/01/19 11:07:50;;;;;;;7.57;1.50;;;;;;;;;;5011563;28;20052;-65
2023/01/19 11:10:16;;;;;;;11.95;2.35;;;;;;;;;;5011083;28;20118;-65
2023/01/19 11:12:47;;;;;;;10.55;2.78;;;;;;;;;;5013412;28;20026;-66
2023/01/19 11:15:14;;;;;;;11.38;2.70;;;;;;;;;;4990264;28;21004;-65
2023/01/19 11:17:43;;;;;;;8.93;1.80;;;;;;;;;;5014598;28;20090;-66
2023/01/19 11:20:18;;;;;;;9.60;1.95;;;;;;;;;;4997870;28;20029;-65
2023/01/19 11:22:44;;;;;;;11.93;2.47;;;;;;;;;;4995953;28;20129;-66
2023/01/19 11:25:20;;;;;;;9.80;2.50;;;;;;;;;;5014990;28;20115;-65
2023/01/19 11:27:50;;;;;;;11.25;2.67;;;;;;;;;;5012694;28;20489;-66
2023/01/19 11:30:21;;;;;;;9.60;1.85;;;;;;;;;;5009108;28;20608;-66
2023/01/19 11:32:48;;;;;;;11.88;2.00;;;;;;;;;;5015214;28;20327;-66
2023/01/19 11:35:29;;;;;;;11.02;1.67;;;;;;;;;;5006443;28;20064;-66
2023/01/19 11:38:07;;;;;;;9.63;1.85;;;;;;;;;;4997081;28;20380;-67
2023/01/19 11:40:47;;;;;;;9.05;2.17;;;;;;;;;;5009016;28;20479;-67
2023/01/19 11:43:13;;;;;;;10.38;2.00;;;;;;;;;;5006579;28;20068;-66
2023/01/19 11:45:39;;;;;;;;;;;;;;;;;;5014109;28;20056;-65
2023/01/19 11:48:07;;;;;;;9.32;1.42;;;;;;;;;;5000551;28;20438;-66
2023/01/19 11:50:40;;;;;;;11.63;2.50;;;;;;;;;;5009113;28;20819;-66
2023/01/19 11:53:09;;;;;;;10.43;2.65;;;;;;;;;;5016217;28;20037;-65
2023/01/19 11:55:35;;;;;;;10.00;1.77;;;;;;;;;;5016868;28;20108;-66
2023/01/19 11:58:02;;;;;;;8.13;1.45;;;;;;;;;;5017759;28;20403;-66
2023/01/19 12:00:30;;;;;;;12.00;1.95;;;;;;;;;;5012191;28;20369;-66
2023/01/19 12:03:01;;;;;;;10.93;2.33;;;;;;;;;;4997550;28;20036;-66
2023/01/19 12:05:33;;;;;;;10.73;2.20;;;;;;;;;;5014918;28;20139;-66
2023/01/19 12:08:02;;;;;;;8.73;2.00;;;;;;;;;;5017220;28;20093;-66
2023/01/19 12:10:30;;;;;;;7.47;1.88;;;;;;;;;;4999184;28;20025;-66
2023/01/19 12:12:57;;;;;;;8.75;2.05;;;;;;;;;;5012390;28;20029;-65
2023/01/19 12:15:29;;;;;;;10.55;1.98;;;;;;;;;;5018290;28;20048;-66
2023/01/19 12:17:57;;;;;;;9.40;2.40;;;;;;;;;;5020677;28;20041;-66
2023/01/19 12:20:23;;;;;;;9.70;2.78;;;;;;;;;;5011914;28;20032;-66
2023/01/19 12:22:53;;;;;;;11.60;2.45;;;;;;;;;;5017446;28;20036;-65
2023/01/19 12:25:21;;;;;;;10.27;2.45;;;;;;;;;;5012359;28;20411;-65
2023/01/19 12:27:48;;;;;;;9.32;2.40;;;;;;;;;;5016993;28;20590;-66
2023/01/19 12:30:19;;;;;;;8.48;1.80;;;;;;;;;;4993191;28;20408;-65
2023/01/19 12:32:46;;;;;;;9.70;1.88;;;;;;;;;;5015120;28;20201;-66
2023/01/19 12:35:12;;;;;;;;;;;;;;;;;;5013231;28;20118;-66
2023/01/19 12:37:41;;;;;;;9.90;2.28;;;;;;;;;;5015495;28;20940;-67
2023/01/19 12:40:19;;;;;;;8.45;1.67;;;;;;;;;;4998921;28;20037;-67
2023/01/19 12:42:47;;;;;;;9.00;1.77;;;;;;;;;;4999932;28;20391;-66
2023/01/19 12:45:16;;;;;;;7.82;1.80;;;;;;;;;;5013158;28;20052;-67
2023/01/19 12:47:51;;;;;;;11.10;2.40;;;;;;;;;;5017184;28;20013;-66
2023/01/19 12:50:19;;;;;;;9.70;2.80;;;;;;;;;;4996173;28;20029;-67
2023/01/19 12:52:50;;;;;;;9.55;2.10;;;;;;;;;;5012359;28;20025;-67
2023/01/19 12:55:25;;;;;;;12.05;2.53;;;;;;;;;;4995264;28;20044;-67
2023/01/19 12:57:55;;;;;;;9.80;2.22;;;;;;;;;;5013321;28;20116;-67
2023/01/19 13:00:21;;;;;;;8.95;2.47;;;;;;;;;;4989990;28;20064;-66
2023/01/19 13:02:50;;;;;;;12.68;2.88;;;;;;;;;;5012192;28;20040;-66
2023/01/19 13:05:23;;;;;;;11.50;2.38;;;;;;;;;;4996701;28;20333;-66
2023/01/19 13:08:14;;;;;;;8.77;2.22;;;;;;;;;;4992516;28;20558;-67
2023/01/19 13:10:58;;;;;;;7.80;2.13;;;;;;;;;;4999469;28;20022;-66
2023/01/19 13:13:32;;;;;;;11.45;2.33;;;;;;;;;;4990825;28;20037;-66
2023/01/19 13:16:18;;;;;;;10.15;1.90;;;;;;;;;;4994195;28;20677;-65
2023/01/19 13:18:44;;;;;;;9.57;1.85;;;;;;;;;;4976881;28;20392;-68
2023/01/19 13:21:25;;;;;;;11.38;2.38;;;;;;;;;;4994849;28;20191;-66
2023/01/19 13:23:53;;;;;;;10.55;2.00;;;;;;;;;;4995747;28;20052;-68
2023/01/19 13:26:21;;;;;;;8.13;1.77;;;;;;;;;;4990090;28;20370;-66
2023/01/19 13:28:53;;;;;;;9.65;2.88;;;;;;;;;;4995273;28;20037;-66
2023/01/19 13:31:20;;;;;;;10.50;2.13;;;;;;;;;;4990328;28;20498;-65
2023/01/19 13:33:56;;;;;;;13.95;4.20;;;;;;;;;;4992693;28;20865;-66
2023/01/19 13:36:25;;;;;;;13.32;4.18;;;;;;;;;;4992137;28;20407;-65
2023/01/19 13:38:52;;;;;;;11.18;2.60;;;;;;;;;;5014515;28;20123;-66
2023/01/19 13:41:21;;;;;;;8.27;2.05;;;;;;;;;;4995100;28;20033;-66
2023/01/19 13:43:48;;;;;;;11.07;2.60;;;;;;;;;;4990855;28;20095;-67
2023/01/19 13:46:16;;;;;;;7.78;2.10;;;;;;;;;;4989708;28;20211;-67
2023/01/19 13:48:52;;;;;;;9.30;2.78;;;;;;;;;;4992572;28;20041;-66
2023/01/19 13:51:18;;;;;;;11.75;3.00;;;;;;;;;;5006250;28;20142;-66
2023/01/19 13:53:58;;;;;;;10.35;2.67;;;;;;;;;;4993852;28;20975;-65
2023/01/19 13:56:27;;;;;;;8.70;2.67;;;;;;;;;;4990455;28;20033;-66
2023/01/19 13:59:08;;;;;;;11.30;2.83;;;;;;;;;;4990215;28;20025;-68
2023/01/19 14:01:34;;;;;;;11.52;2.90;;;;;;;;;;4992688;28;20367;-66
2023/01/19 14:04:00;;;;;;;11.43;3.70;;;;;;;;;;4990511;28;20040;-66
2023/01/19 14:06:35;;;;;;;10.65;2.97;;;;;;;;;;4992557;28;20050;-66
2023/01/19 14:09:10;;;;;;;8.65;2.47;;;;;;;;;;4990934;28;20468;-66
2023/01/19 14:11:36;;;;;;;9.00;2.28;;;;;;;;;;5005412;28;20032;-66
2023/01/19 14:14:02;;;;;;;15.48;4.32;;;;;;;;;;4988213;28;20030;-65
2023/01/19 14:16:29;;;;;;;12.30;3.67;;;;;;;;;;4989025;28;20033;-67
2023/01/19 14:19:03;;;;;;;11.65;2.72;;;;;;;;;;4992968;28;20061;-67
2023/01/19 14:21:39;;;;;;;9.27;2.38;;;;;;;;;;4988099;28;20376;-67
2023/01/19 14:24:14;;;;;;;11.65;4.63;;;;;;;;;;4994175;28;20072;-67
2023/01/19 14:26:45;;;;;;;18.02;7.90;;;;;;;;;;4992806;28;20041;-67
2023/01/19 14:29:32;;;;;;;13.40;3.53;;;;;;;;;;4991138;28;20036;-67
2023/01/19 14:32:16;;;;;;;11.15;3.25;;;;;;;;;;4992300;28;20120;-67
2023/01/19 14:34:42;;;;;;;8.73;2.85;;;;;;;;;;4992755;28;20034;-66
2023/01/19 14:37:16;;;;;;;10.85;3.63;;;;;;;;;;4992303;28;20578;-67
2023/01/19 14:39:49;;;;;;;10.77;2.50;;;;;;;;;;4987037;28;20364;-66
2023/01/19 14:42:21;;;;;;;11.20;2.63;;;;;;;;;;4992013;28;20780;-66
2023/01/19 14:44:49;;;;;;;8.70;1.88;;;;;;;;;;4991555;28;20116;-67
2023/01/19 14:47:26;;;;;;;8.80;2.00;;;;;;;;;;4990142;28;20100;-67
2023/01/19 14:49:54;;;;;;;8.90;2.70;;;;;;;;;;4991393;28;20029;-66
2023/01/19 14:52:24;;;;;;;10.73;2.72;;;;;;;;;;4987368;28;20037;-67
2023/01/19 14:54:51;;;;;;;10.25;3.58;;;;;;;;;;4995988;28;20543;-67
2023/01/19 14:57:17;;;;;;;11.18;4.18;;;;;;;;;;4990735;28;20029;-66
2023/01/19 14:59:47;;;;;;;13.18;4.15;;;;;;;;;;4993155;28;20384;-66